Time,TemperatureF,DewpointF,PressureIn,WindDirection,WindDirectionDegrees,WindSpeedMPH,WindSpeedGustMPH,Humidity,HourlyPrecipIn,Conditions,Clouds,dailyrainin,SoftwareType,DateUTC
2013-08-15 00:08:00,79.7,68.0,29.91,NE,48,0.0,0.0,67,0.00,,,0.00,weatherlink.com 1.10,2013-08-15 05:08:00,
2013-08-15 00:22:00,79.4,68.0,29.91,NNE,20,0.0,0.0,69,0.00,,,0.00,weatherlink.com 1.10,2013-08-15 05:22:00,
2013-08-15 00:38:00,78.9,69.0,29.91,NE,55,0.0,0.0,71,0.00,,,0.00,weatherlink.com 1.10,2013-08-15 05:38:00,
2013-08-15 00:53:00,78.6,68.0,29.91,NNE,27,0.0,0.0,71,0.00,,,0.00,weatherlink.com 1.10,2013-08-15 05:53:00,
2013-08-15 01:08:00,78.4,69.0,29.90,NE,51,0.0,0.0,72,0.00,,,0.00,weatherlink.com 1.10,2013-08-15 06:08:00,
2013-08-15 01:23:00,78.2,68.0,29.89,NNE,12,0.0,0.0,72,0.00,,,0.00,weatherlink.com 1.10,2013-08-15 06:23:00,
2013-08-15 01:38:00,78.0,68.0,29.88,ENE,63,0.0,0.0,72,0.00,,,0.00,weatherlink.com 1.10,2013-08-15 06:38:00,
2013-08-15 01:53:00,77.7,68.0,29.88,East,93,0.0,0.0,72,0.00,,,0.00,weatherlink.com 1.10,2013-08-15 06:53:00,
2013-08-15 02:08:00,77.4,68.0,29.88,ESE,117,0.0,0.0,73,0.00,,,0.00,weatherlink.com 1.10,2013-08-15 07:08:00,
2013-08-15 02:23:00,76.9,68.0,29.87,SE,126,0.0,1.0,74,0.00,,,0.00,weatherlink.com 1.10,2013-08-15 07:23:00,
2013-08-15 02:38:00,76.5,68.0,29.87,SSW,201,0.0,1.0,75,0.00,,,0.00,weatherlink.com 1.10,2013-08-15 07:38:00,
2013-08-15 02:53:00,76.1,68.0,29.87,SSW,210,0.0,2.0,76,0.00,,,0.00,weatherlink.com 1.10,2013-08-15 07:53:00,
2013-08-15 03:08:00,75.9,68.0,29.87,South,187,0.0,0.0,77,0.00,,,0.00,weatherlink.com 1.10,2013-08-15 08:08:00,
2013-08-15 03:23:00,75.7,68.0,29.87,NE,50,0.0,1.0,78,0.00,,,0.00,weatherlink.com 1.10,2013-08-15 08:23:00,
2013-08-15 03:38:00,75.3,68.0,29.87,SSW,193,0.0,1.0,79,0.00,,,0.00,weatherlink.com 1.10,2013-08-15 08:38:00,
2013-08-15 03:53:00,74.9,68.0,29.87,SSW,198,0.0,0.0,80,0.00,,,0.00,weatherlink.com 1.10,2013-08-15 08:53:00,
2013-08-15 04:08:00,74.5,68.0,29.87,SSW,207,0.0,1.0,81,0.00,,,0.00,weatherlink.com 1.10,2013-08-15 09:08:00,
2013-08-15 04:23:00,74.1,68.0,29.88,SSE,158,0.0,2.0,82,0.00,,,0.00,weatherlink.com 1.10,2013-08-15 09:23:00,
2013-08-15 04:38:00,73.7,68.0,29.88,SW,220,0.0,1.0,83,0.00,,,0.00,weatherlink.com 1.10,2013-08-15 09:38:00,
2013-08-15 04:53:00,73.4,68.0,29.87,SSW,204,0.0,1.0,84,0.00,,,0.00,weatherlink.com 1.10,2013-08-15 09:53:00,
2013-08-15 05:08:00,73.5,68.0,29.87,SSE,156,0.0,0.0,83,0.00,,,0.00,weatherlink.com 1.10,2013-08-15 10:08:00,
2013-08-15 05:23:00,73.3,68.0,29.87,SW,214,0.0,0.0,84,0.00,,,0.00,weatherlink.com 1.10,2013-08-15 10:23:00,
2013-08-15 05:38:00,72.7,67.0,29.88,SSW,211,0.0,1.0,83,0.00,,,0.00,weatherlink.com 1.10,2013-08-15 10:38:00,
2013-08-15 05:53:00,71.6,67.0,29.88,SSW,211,0.0,1.0,85,0.00,,,0.00,weatherlink.com 1.10,2013-08-15 10:53:00,
2013-08-15 06:08:00,71.0,67.0,29.89,WNW,300,0.0,2.0,87,0.00,,,0.00,weatherlink.com 1.10,2013-08-15 11:08:00,
2013-08-15 06:23:00,70.4,66.0,29.88,SW,235,0.0,1.0,86,0.00,,,0.00,weatherlink.com 1.10,2013-08-15 11:23:00,
2013-08-15 06:38:00,70.1,67.0,29.89,NW,316,0.0,0.0,88,0.00,,,0.00,weatherlink.com 1.10,2013-08-15 11:38:00,
2013-08-15 06:53:00,69.7,66.0,29.89,NW,316,0.0,0.0,88,0.00,,,0.00,weatherlink.com 1.10,2013-08-15 11:53:00,
2013-08-15 07:08:00,69.1,66.0,29.89,NW,316,0.0,0.0,89,0.00,,,0.00,weatherlink.com 1.10,2013-08-15 12:08:00,
2013-08-15 07:23:00,69.1,66.0,29.89,NW,316,0.0,0.0,89,0.00,,,0.00,weatherlink.com 1.10,2013-08-15 12:23:00,
2013-08-15 07:38:00,70.7,67.0,29.90,NW,316,0.0,0.0,88,0.00,,,0.00,weatherlink.com 1.10,2013-08-15 12:38:00,
2013-08-15 07:53:00,73.7,69.0,29.90,NW,316,0.0,0.0,85,0.00,,,0.00,weatherlink.com 1.10,2013-08-15 12:53:00,
2013-08-15 08:08:00,75.6,68.0,29.90,NNW,328,0.0,2.0,78,0.00,,,0.00,weatherlink.com 1.10,2013-08-15 13:08:00,
2013-08-15 08:23:00,75.9,70.0,29.91,North,1,0.0,0.0,82,0.00,,,0.00,weatherlink.com 1.10,2013-08-15 13:23:00,
2013-08-15 08:38:00,78.7,70.0,29.91,ENE,70,0.0,1.0,74,0.00,,,0.00,weatherlink.com 1.10,2013-08-15 13:38:00,
2013-08-15 08:53:00,80.0,70.0,29.91,SW,219,0.0,3.0,72,0.00,,,0.00,weatherlink.com 1.10,2013-08-15 13:53:00,
2013-08-15 09:09:00,80.1,70.0,29.91,NNW,346,0.0,2.0,70,0.00,,,0.00,weatherlink.com 1.10,2013-08-15 14:09:00,
2013-08-15 09:24:00,80.1,70.0,29.91,SSW,207,0.0,2.0,70,0.00,,,0.00,weatherlink.com 1.10,2013-08-15 14:24:00,
2013-08-15 09:39:00,81.6,69.0,29.91,NW,315,0.0,1.0,65,0.00,,,0.00,weatherlink.com 1.10,2013-08-15 14:39:00,
2013-08-15 09:54:00,82.4,69.0,29.91,SW,226,0.0,1.0,64,0.00,,,0.00,weatherlink.com 1.10,2013-08-15 14:54:00,
2013-08-15 10:09:00,86.1,69.0,29.91,SSW,195,0.0,2.0,57,0.00,,,0.00,weatherlink.com 1.10,2013-08-15 15:09:00,
2013-08-15 10:24:00,88.4,70.0,29.91,ESE,108,0.0,1.0,54,0.00,,,0.00,weatherlink.com 1.10,2013-08-15 15:24:00,
2013-08-15 10:39:00,87.8,69.0,29.91,SE,128,0.0,0.0,53,0.00,,,0.00,weatherlink.com 1.10,2013-08-15 15:39:00,
2013-08-15 10:54:00,86.4,68.0,29.92,NE,54,0.0,0.0,55,0.00,,,0.00,weatherlink.com 1.10,2013-08-15 15:54:00,
2013-08-15 11:09:00,88.3,68.0,29.92,NW,308,0.0,1.0,51,0.00,,,0.00,weatherlink.com 1.10,2013-08-15 16:09:00,
2013-08-15 11:24:00,88.3,68.0,29.92,East,97,0.0,0.0,52,0.00,,,0.00,weatherlink.com 1.10,2013-08-15 16:24:00,
2013-08-15 11:39:00,89.5,68.0,29.92,SE,127,0.0,0.0,50,0.00,,,0.00,weatherlink.com 1.10,2013-08-15 16:39:00,
2013-08-15 11:54:00,92.2,69.0,29.91,SW,235,0.0,0.0,47,0.00,,,0.00,weatherlink.com 1.10,2013-08-15 16:54:00,
2013-08-15 12:09:00,92.5,68.0,29.91,SSE,159,0.0,0.0,44,0.00,,,0.00,weatherlink.com 1.10,2013-08-15 17:09:00,
2013-08-15 12:24:00,92.5,68.0,29.90,SW,224,0.0,0.0,44,0.00,,,0.00,weatherlink.com 1.10,2013-08-15 17:24:00,
2013-08-15 12:39:00,93.7,67.0,29.90,SSW,203,0.0,0.0,42,0.00,,,0.00,weatherlink.com 1.10,2013-08-15 17:39:00,
2013-08-15 12:54:00,95.9,68.0,29.89,SW,226,0.0,0.0,40,0.00,,,0.00,weatherlink.com 1.10,2013-08-15 17:54:00,
2013-08-15 13:09:00,93.2,69.0,29.89,NNW,337,0.0,0.0,45,0.00,,,0.00,weatherlink.com 1.10,2013-08-15 18:09:00,
2013-08-15 13:24:00,91.2,69.0,29.88,NNE,25,0.0,0.0,48,0.00,,,0.00,weatherlink.com 1.10,2013-08-15 18:24:00,
2013-08-15 13:39:00,89.4,68.0,29.88,North,7,0.0,0.0,50,0.00,,,0.00,weatherlink.com 1.10,2013-08-15 18:39:00,
2013-08-15 13:54:00,85.2,70.0,29.89,WNW,301,0.0,0.0,60,0.18,,,0.18,weatherlink.com 1.10,2013-08-15 18:54:00,
2013-08-15 14:09:00,78.2,72.0,29.89,WSW,240,0.0,0.0,82,0.35,,,0.35,weatherlink.com 1.10,2013-08-15 19:09:00,
2013-08-15 14:39:00,75.5,71.0,29.89,NW,312,0.0,0.0,85,0.45,,,0.45,weatherlink.com 1.10,2013-08-15 19:39:00,
2013-08-15 14:54:00,73.0,69.0,29.91,NNW,340,0.0,0.0,86,0.32,,,0.50,weatherlink.com 1.10,2013-08-15 19:54:00,
2013-08-15 15:09:00,71.3,68.0,29.91,NW,307,0.0,0.0,89,0.22,,,0.57,weatherlink.com 1.10,2013-08-15 20:09:00,
2013-08-15 15:24:00,71.4,68.0,29.89,NW,319,0.0,0.0,90,0.22,,,0.61,weatherlink.com 1.10,2013-08-15 20:24:00,
2013-08-15 15:39:00,72.3,69.0,29.88,WSW,252,0.0,1.0,90,0.16,,,0.61,weatherlink.com 1.10,2013-08-15 20:39:00,
2013-08-15 16:09:00,75.3,71.0,29.85,NW,323,0.0,1.0,86,0.03,,,0.61,weatherlink.com 1.10,2013-08-15 21:09:00,
2013-08-15 16:24:00,76.4,72.0,29.85,NNE,28,0.0,0.0,85,0.00,,,0.61,weatherlink.com 1.10,2013-08-15 21:24:00,
2013-08-15 16:39:00,79.5,72.0,29.84,NNE,28,0.0,1.0,77,0.00,,,0.61,weatherlink.com 1.10,2013-08-15 21:39:00,
2013-08-15 16:54:00,83.3,74.0,29.83,South,190,0.0,1.0,73,0.00,,,0.61,weatherlink.com 1.10,2013-08-15 21:54:00,
2013-08-15 17:09:00,86.0,76.0,29.83,ESE,120,1.0,1.0,71,0.00,,,0.61,weatherlink.com 1.10,2013-08-15 22:09:00,
2013-08-15 17:24:00,86.8,75.0,29.83,SE,138,0.0,1.0,68,0.00,,,0.61,weatherlink.com 1.10,2013-08-15 22:24:00,
2013-08-15 17:39:00,85.9,71.0,29.83,South,170,0.0,1.0,62,0.00,,,0.61,weatherlink.com 1.10,2013-08-15 22:39:00,
2013-08-15 17:54:00,85.7,71.0,29.84,South,176,0.0,0.0,62,0.00,,,0.61,weatherlink.com 1.10,2013-08-15 22:54:00,
2013-08-15 18:09:00,85.2,72.0,29.84,SSW,192,0.0,1.0,64,0.00,,,0.61,weatherlink.com 1.10,2013-08-15 23:09:00,
2013-08-15 18:24:00,84.8,71.0,29.84,ESE,119,0.0,2.0,63,0.00,,,0.61,weatherlink.com 1.10,2013-08-15 23:24:00,
2013-08-15 18:39:00,84.2,71.0,29.85,ENE,63,0.0,1.0,65,0.00,,,0.61,weatherlink.com 1.10,2013-08-15 23:39:00,
2013-08-15 18:54:00,83.2,73.0,29.85,NNE,20,0.0,2.0,71,0.00,,,0.61,weatherlink.com 1.10,2013-08-15 23:54:00,
2013-08-15 19:10:00,81.9,73.0,29.87,NW,316,0.0,3.0,74,0.00,,,0.61,weatherlink.com 1.10,2013-08-16 00:10:00,
2013-08-15 19:24:00,79.5,71.0,29.89,NNW,328,10.0,15.0,74,0.01,,,0.62,weatherlink.com 1.10,2013-08-16 00:24:00,
2013-08-15 19:39:00,75.0,70.0,29.89,NNW,340,0.0,0.0,83,0.01,,,0.62,weatherlink.com 1.10,2013-08-16 00:39:00,
2013-08-15 19:54:00,73.3,69.0,29.90,NW,316,0.0,0.0,87,0.01,,,0.62,weatherlink.com 1.10,2013-08-16 00:54:00,
2013-08-15 20:09:00,72.8,69.0,29.91,NNE,12,0.0,0.0,88,0.01,,,0.62,weatherlink.com 1.10,2013-08-16 01:09:00,
2013-08-15 20:24:00,72.6,69.0,29.91,SSW,198,0.0,0.0,88,0.00,,,0.62,weatherlink.com 1.10,2013-08-16 01:24:00,
2013-08-15 20:40:00,72.2,68.0,29.91,North,355,0.0,0.0,87,0.00,,,0.62,weatherlink.com 1.10,2013-08-16 01:40:00,
2013-08-15 20:54:00,71.6,68.0,29.91,East,79,0.0,0.0,88,0.00,,,0.62,weatherlink.com 1.10,2013-08-16 01:54:00,
2013-08-15 21:09:00,71.4,68.0,29.91,NW,325,0.0,0.0,88,0.00,,,0.62,weatherlink.com 1.10,2013-08-16 02:09:00,
2013-08-15 21:24:00,71.4,67.0,29.91,ENE,68,0.0,0.0,87,0.00,,,0.62,weatherlink.com 1.10,2013-08-16 02:24:00,
2013-08-15 21:40:00,71.4,67.0,29.91,ESE,103,0.0,0.0,86,0.00,,,0.62,weatherlink.com 1.10,2013-08-16 02:40:00,
2013-08-15 21:54:00,71.1,67.0,29.91,SW,231,0.0,1.0,87,0.00,,,0.62,weatherlink.com 1.10,2013-08-16 02:54:00,
2013-08-15 22:09:00,70.5,67.0,29.91,SW,232,0.0,0.0,87,0.00,,,0.62,weatherlink.com 1.10,2013-08-16 03:09:00,
2013-08-15 22:25:00,70.2,67.0,29.92,NNE,18,0.0,0.0,88,0.00,,,0.62,weatherlink.com 1.10,2013-08-16 03:25:00,
2013-08-15 22:40:00,69.8,67.0,29.91,NNE,18,0.0,1.0,89,0.00,,,0.62,weatherlink.com 1.10,2013-08-16 03:40:00,
2013-08-15 22:55:00,69.2,67.0,29.92,NNE,14,0.0,2.0,92,0.00,,,0.62,weatherlink.com 1.10,2013-08-16 03:55:00,
2013-08-15 23:10:00,69.0,67.0,29.93,NW,315,0.0,1.0,92,0.00,,,0.62,weatherlink.com 1.10,2013-08-16 04:10:00,
2013-08-15 23:25:00,68.8,67.0,29.93,NW,315,0.0,1.0,93,0.00,,,0.62,weatherlink.com 1.10,2013-08-16 04:25:00,
2013-08-15 23:40:00,68.7,67.0,29.93,SSW,205,0.0,1.0,93,0.00,,,0.62,weatherlink.com 1.10,2013-08-16 04:40:00,
2013-08-15 23:55:00,68.4,66.0,29.93,WNW,291,1.0,2.0,93,0.00,,,0.62,weatherlink.com 1.10,2013-08-16 04:55:00,